Time;durP1;ratioP1;P1;durP2;ratioP2;P2;SDS_P1;SDS_P2;PMS_P1;PMS_P2;Temp;Humidity;BMP_temperature;BMP_pressure;BME280_temperature;BME280_humidity;BME280_pressure;Samples;Min_cycle;Max_cycle;Signal;HPM_P1;HPM_P2
2022/07/18 00:01:01;;;;;;;7.50;4.50;;;18.50;99.90;;;;;;5094443;28;20051;-73
2022/07/18 00:03:26;;;;;;;9.10;5.07;;;18.50;99.90;;;;;;5092835;28;20515;-73
2022/07/18 00:05:52;;;;;;;7.70;4.87;;;18.50;99.90;;;;;;5094778;28;20091;-73
2022/07/18 00:08:18;;;;;;;8.70;5.20;;;18.50;99.90;;;;;;5093885;28;20055;-74
2022/07/18 00:10:44;;;;;;;10.13;5.33;;;18.40;99.90;;;;;;5094182;28;20044;-73
2022/07/18 00:13:10;;;;;;;8.17;4.60;;;18.40;99.90;;;;;;5094248;28;20558;-73
2022/07/18 00:15:36;;;;;;;8.70;4.43;;;18.40;99.90;;;;;;5093123;28;20066;-73
2022/07/18 00:18:03;;;;;;;9.93;4.87;;;18.40;99.90;;;;;;5094089;28;20044;-73
2022/07/18 00:20:29;;;;;;;8.20;4.77;;;18.40;99.90;;;;;;5094032;28;20056;-73
2022/07/18 00:22:55;;;;;;;10.27;4.70;;;18.40;99.90;;;;;;5093666;28;20153;-73
2022/07/18 00:25:21;;;;;;;6.33;4.20;;;18.30;99.90;;;;;;5094673;28;20032;-73
2022/07/18 00:27:47;;;;;;;9.10;4.40;;;18.30;99.90;;;;;;5093306;28;20047;-73
2022/07/18 00:30:13;;;;;;;6.87;4.10;;;18.30;99.90;;;;;;5093870;28;20067;-73
2022/07/18 00:32:38;;;;;;;7.90;4.60;;;18.30;99.90;;;;;;5093642;28;20124;-73
2022/07/18 00:35:04;;;;;;;7.67;4.90;;;18.20;99.90;;;;;;5126889;27;20048;-73
2022/07/18 00:37:30;;;;;;;7.50;4.23;;;18.20;99.90;;;;;;5127374;27;20432;-73
2022/07/18 00:39:56;;;;;;;6.90;4.13;;;18.20;99.90;;;;;;5094328;28;20090;-73
2022/07/18 00:42:21;;;;;;;8.63;4.57;;;18.10;99.90;;;;;;5093784;28;20057;-73
2022/07/18 00:44:53;;;;;;;9.97;4.43;;;18.00;99.90;;;;;;5093319;28;20052;-73
2022/07/18 00:47:19;;;;;;;6.67;4.00;;;18.00;99.90;;;;;;5094479;28;20087;-76
2022/07/18 00:49:45;;;;;;;8.77;4.70;;;18.00;99.90;;;;;;5094192;28;20050;-73
2022/07/18 00:52:10;;;;;;;5.90;4.37;;;18.00;99.90;;;;;;5093627;28;20372;-73
2022/07/18 00:54:36;;;;;;;7.70;5.10;;;17.90;99.90;;;;;;5092543;28;20047;-73
2022/07/18 00:57:02;;;;;;;7.83;4.53;;;17.90;99.90;;;;;;5093861;28;20048;-73
2022/07/18 01:02:13;;;;;;;8.57;5.18;;;17.80;99.90;;;;;;5093374;28;20052;-73
2022/07/18 01:04:39;;;;;;;8.83;4.47;;;17.80;99.90;;;;;;5093844;28;20040;-73
2022/07/18 01:07:04;;;;;;;8.50;4.57;;;17.80;99.90;;;;;;5092735;28;20044;-73
2022/07/18 01:09:30;;;;;;;7.27;4.30;;;17.80;99.90;;;;;;5093476;28;20189;-73
2022/07/18 01:11:56;;;;;;;8.57;4.60;;;17.70;99.90;;;;;;5094193;28;20047;-73
2022/07/18 01:14:21;;;;;;;8.20;4.87;;;17.60;99.90;;;;;;5093103;28;20489;-74
2022/07/18 01:16:49;;;;;;;8.50;4.57;;;17.70;99.90;;;;;;5093561;28;20101;-74
2022/07/18 01:19:14;;;;;;;9.40;5.00;;;17.60;99.90;;;;;;5094786;28;20047;-73
2022/07/18 01:21:40;;;;;;;6.43;4.20;;;17.50;99.90;;;;;;5096307;28;20533;-73
2022/07/18 01:24:06;;;;;;;9.13;5.10;;;17.60;99.90;;;;;;5097064;28;20074;-73
2022/07/18 01:26:32;;;;;;;8.73;5.03;;;17.60;99.90;;;;;;5097389;28;20048;-74
2022/07/18 01:28:57;;;;;;;7.33;4.50;;;17.70;99.90;;;;;;5098124;28;20071;-73
2022/07/18 01:31:23;;;;;;;10.57;4.57;;;17.60;99.90;;;;;;5097302;28;20047;-73
2022/07/18 01:33:49;;;;;;;7.83;4.80;;;17.60;99.90;;;;;;5096268;28;20044;-73
2022/07/18 01:36:14;;;;;;;8.67;4.50;;;17.50;99.90;;;;;;5096257;28;20056;-73
2022/07/18 01:38:40;;;;;;;6.90;4.33;;;17.50;99.90;;;;;;5096103;28;20044;-73
2022/07/18 01:41:06;;;;;;;7.23;4.47;;;17.60;99.90;;;;;;5097158;28;20044;-73
2022/07/18 01:43:32;;;;;;;7.53;4.67;;;17.60;99.90;;;;;;5096833;28;20060;-73
2022/07/18 01:45:58;;;;;;;7.87;4.70;;;17.60;99.90;;;;;;5097260;28;20036;-73
2022/07/18 01:48:24;;;;;;;10.63;5.17;;;17.60;99.90;;;;;;5097000;28;20545;-73
2022/07/18 01:50:50;;;;;;;7.70;4.83;;;17.50;99.90;;;;;;5096732;28;20091;-73
2022/07/18 01:53:16;;;;;;;5.93;4.40;;;17.50;99.90;;;;;;5096872;28;20503;-73
2022/07/18 01:55:42;;;;;;;8.20;4.70;;;17.40;99.90;;;;;;5095554;28;20052;-73
2022/07/18 01:58:08;;;;;;;6.40;4.30;;;17.40;99.90;;;;;;5095632;28;20050;-73
2022/07/18 02:00:33;;;;;;;8.97;5.33;;;17.40;99.90;;;;;;5096682;28;20488;-73
2022/07/18 02:02:59;;;;;;;8.23;4.93;;;17.40;99.90;;;;;;5097003;28;20127;-74
2022/07/18 02:05:25;;;;;;;8.30;5.70;;;17.40;99.90;;;;;;5095739;28;20051;-73
2022/07/18 02:07:51;;;;;;;8.83;5.47;;;17.40;99.90;;;;;;5096636;28;20040;-73
2022/07/18 02:10:19;;;;;;;7.57;4.43;;;17.40;99.90;;;;;;5078957;28;20426;-73
2022/07/18 02:12:45;;;;;;;8.03;5.07;;;17.50;99.90;;;;;;5095337;28;20191;-73
2022/07/18 02:15:13;;;;;;;9.07;5.33;;;17.40;99.90;;;;;;5096536;28;20040;-73
2022/07/18 02:17:38;;;;;;;8.53;5.40;;;17.30;99.90;;;;;;5096445;28;20052;-73
2022/07/18 02:20:07;;;;;;;9.57;5.63;;;17.30;99.90;;;;;;5095477;28;20139;-73
2022/07/18 02:22:33;;;;;;;9.30;5.43;;;17.30;99.90;;;;;;5078443;28;20131;-74
2022/07/18 02:24:58;;;;;;;10.60;5.73;;;17.30;99.90;;;;;;5096556;28;20126;-73
2022/07/18 02:27:24;;;;;;;9.27;5.83;;;17.30;99.90;;;;;;5095937;28;20135;-73
2022/07/18 02:29:50;;;;;;;10.13;6.20;;;17.20;99.90;;;;;;5095563;28;20123;-73
2022/07/18 02:32:16;;;;;;;8.80;5.97;;;17.20;99.90;;;;;;5094576;28;20101;-73
2022/07/18 02:34:42;;;;;;;13.90;6.70;;;17.20;99.90;;;;;;5094866;28;20040;-73
2022/07/18 02:37:08;;;;;;;9.67;6.03;;;17.20;99.90;;;;;;5096067;28;20040;-73
2022/07/18 02:39:34;;;;;;;11.07;6.03;;;17.20;99.90;;;;;;5096837;28;20051;-74
2022/07/18 02:42:00;;;;;;;10.40;5.37;;;17.20;99.90;;;;;;5095741;28;20395;-73
2022/07/18 02:44:26;;;;;;;9.30;6.03;;;17.20;99.90;;;;;;5094674;28;20097;-73
2022/07/18 02:46:52;;;;;;;9.60;5.30;;;17.20;99.90;;;;;;5096367;28;20047;-73
2022/07/18 02:49:26;;;;;;;8.77;5.60;;;17.20;99.90;;;;;;5094655;28;20556;-73
2022/07/18 02:51:57;;;;;;;8.40;5.40;;;17.20;99.90;;;;;;5096596;28;20044;-73
2022/07/18 02:54:24;;;;;;;11.07;6.00;;;17.20;99.90;;;;;;5095911;28;20055;-73
2022/07/18 02:56:50;;;;;;;10.00;5.90;;;17.20;99.90;;;;;;5095687;28;20095;-73
2022/07/18 02:59:15;;;;;;;10.30;5.33;;;17.20;99.90;;;;;;5095699;28;20087;-73
2022/07/18 03:01:41;;;;;;;8.17;5.57;;;17.20;99.90;;;;;;5095892;28;20091;-73
2022/07/18 03:04:07;;;;;;;9.60;5.80;;;17.10;99.90;;;;;;5094553;28;20044;-73
2022/07/18 03:06:33;;;;;;;9.77;5.80;;;17.20;99.90;;;;;;5095995;28;20367;-73
2022/07/18 03:08:58;;;;;;;9.80;5.60;;;17.10;99.90;;;;;;5094792;28;20044;-73
2022/07/18 03:11:24;;;;;;;9.33;5.60;;;17.10;99.90;;;;;;5095090;28;20044;-73
2022/07/18 03:13:49;;;;;;;9.23;6.13;;;17.10;99.90;;;;;;5095889;28;20093;-73
2022/07/18 03:16:15;;;;;;;12.27;6.17;;;17.10;99.90;;;;;;5095121;28;20455;-73
2022/07/18 03:18:41;;;;;;;10.50;5.70;;;17.00;99.90;;;;;;5094053;28;20040;-73
2022/07/18 03:21:06;;;;;;;10.23;5.57;;;17.10;99.90;;;;;;5094862;28;20044;-73
2022/07/18 03:23:32;;;;;;;12.73;5.77;;;17.00;99.90;;;;;;5095195;28;20047;-73
2022/07/18 03:25:58;;;;;;;10.83;6.77;;;17.00;99.90;;;;;;5076997;28;20517;-73
2022/07/18 03:28:23;;;;;;;11.07;6.27;;;17.00;99.90;;;;;;5093844;28;20040;-73
2022/07/18 03:30:49;;;;;;;10.83;5.90;;;17.00;99.90;;;;;;5095001;28;20051;-73
2022/07/18 03:33:15;;;;;;;9.40;5.83;;;17.00;99.90;;;;;;5095000;28;20087;-73
2022/07/18 03:35:40;;;;;;;9.17;5.97;;;17.00;99.90;;;;;;5093899;28;20472;-73
2022/07/18 03:38:06;;;;;;;10.13;6.13;;;17.00;99.90;;;;;;5094623;28;20093;-73
2022/07/18 03:40:32;;;;;;;8.47;6.37;;;17.00;99.90;;;;;;5094610;28;20047;-73
2022/07/18 03:42:58;;;;;;;11.13;6.43;;;16.90;99.90;;;;;;5093235;28;20056;-73
2022/07/18 03:45:23;;;;;;;9.80;5.97;;;16.90;99.90;;;;;;5094038;28;20080;-73
2022/07/18 03:47:50;;;;;;;12.27;5.97;;;16.90;99.90;;;;;;5093165;28;20052;-73
2022/07/18 03:50:16;;;;;;;10.07;6.33;;;16.90;99.90;;;;;;5095102;28;20052;-73
2022/07/18 03:52:42;;;;;;;14.03;6.23;;;16.90;99.90;;;;;;5093901;28;20448;-73
2022/07/18 03:55:08;;;;;;;9.13;6.13;;;16.90;99.90;;;;;;5094800;28;20472;-73
2022/07/18 03:57:33;;;;;;;9.83;6.03;;;16.90;99.90;;;;;;5093828;28;20426;-74
2022/07/18 03:59:59;;;;;;;8.53;5.90;;;16.90;99.90;;;;;;5094474;28;20044;-73
2022/07/18 04:02:25;;;;;;;8.47;5.87;;;16.90;99.90;;;;;;5093504;28;20052;-73
2022/07/18 04:04:51;;;;;;;16.00;6.60;;;17.00;99.90;;;;;;5077175;28;20063;-73
2022/07/18 04:07:17;;;;;;;9.77;6.10;;;16.90;99.90;;;;;;5094356;28;20044;-73
2022/07/18 04:09:43;;;;;;;8.73;5.40;;;16.90;99.90;;;;;;5094299;28;20051;-73
2022/07/18 04:12:08;;;;;;;11.00;5.67;;;16.90;99.90;;;;;;5094367;28;20139;-73
2022/07/18 04:14:34;;;;;;;10.47;5.80;;;17.00;99.90;;;;;;5094271;28;20050;-73
2022/07/18 04:16:59;;;;;;;9.03;5.90;;;16.90;99.90;;;;;;5094041;28;20044;-73
2022/07/18 04:19:25;;;;;;;8.43;5.23;;;17.00;99.90;;;;;;5094237;28;20048;-73
2022/07/18 04:21:51;;;;;;;11.37;5.93;;;16.90;99.90;;;;;;5094093;28;20044;-73
2022/07/18 04:24:16;;;;;;;7.80;5.27;;;17.00;99.90;;;;;;5093973;28;20386;-73
2022/07/18 04:26:42;;;;;;;10.57;5.63;;;17.00;99.90;;;;;;5093016;28;20123;-77
2022/07/18 04:29:08;;;;;;;8.10;5.20;;;17.10;99.90;;;;;;5093956;28;20502;-73
2022/07/18 04:31:34;;;;;;;9.80;5.40;;;17.10;99.90;;;;;;5093200;28;20052;-73
2022/07/18 04:33:59;;;;;;;8.37;5.50;;;17.20;99.90;;;;;;5093816;28;20051;-73
2022/07/18 04:36:25;;;;;;;8.23;4.90;;;17.20;99.90;;;;;;5093908;28;20047;-73
2022/07/18 04:38:51;;;;;;;9.97;5.77;;;17.20;99.90;;;;;;5093202;28;20048;-73
2022/07/18 04:41:19;;;;;;;8.87;5.50;;;17.20;99.90;;;;;;5093898;28;20095;-73
2022/07/18 04:43:45;;;;;;;8.43;5.07;;;17.30;99.90;;;;;;5094215;28;20060;-76
2022/07/18 04:46:11;;;;;;;9.97;5.37;;;17.30;99.90;;;;;;5093008;28;20387;-73
2022/07/18 04:48:38;;;;;;;13.87;5.80;;;17.40;99.90;;;;;;5094227;28;20051;-73
2022/07/18 04:51:04;;;;;;;8.40;5.33;;;17.30;99.90;;;;;;5092518;28;20126;-73
2022/07/18 04:53:30;;;;;;;8.83;4.37;;;17.30;99.90;;;;;;5092157;28;20055;-73
2022/07/18 04:55:56;;;;;;;8.53;5.37;;;17.40;99.90;;;;;;5094051;28;20067;-73
2022/07/18 04:58:21;;;;;;;8.30;4.77;;;17.40;99.90;;;;;;5092706;28;20492;-73
2022/07/18 05:00:47;;;;;;;7.87;4.70;;;17.40;99.90;;;;;;5094340;28;20487;-74
2022/07/18 05:03:14;;;;;;;8.17;4.70;;;17.40;99.90;;;;;;5093538;28;20040;-73
2022/07/18 05:05:39;;;;;;;7.97;4.77;;;17.40;99.90;;;;;;5092263;28;20044;-73
2022/07/18 05:08:06;;;;;;;11.30;4.97;;;17.50;99.90;;;;;;5092913;28;20096;-73
2022/07/18 05:10:32;;;;;;;7.10;4.60;;;17.50;99.90;;;;;;5092521;28;20047;-73
2022/07/18 05:12:58;;;;;;;9.87;4.37;;;17.50;99.90;;;;;;5093471;28;20054;-73
2022/07/18 05:15:25;;;;;;;8.40;4.70;;;17.50;99.90;;;;;;5093412;28;20043;-73
2022/07/18 05:17:52;;;;;;;8.57;4.30;;;17.60;99.90;;;;;;5093103;28;20052;-73
2022/07/18 05:20:20;;;;;;;10.80;4.30;;;17.60;99.90;;;;;;5093375;28;20083;-73
2022/07/18 05:22:46;;;;;;;8.03;4.57;;;17.70;99.90;;;;;;5075511;28;20138;-73
2022/07/18 05:25:12;;;;;;;9.90;4.87;;;17.70;99.90;;;;;;5093205;28;20098;-73
2022/07/18 05:27:38;;;;;;;7.90;4.77;;;17.70;99.90;;;;;;5092118;28;20093;-73
2022/07/18 05:30:06;;;;;;;8.80;4.37;;;17.70;99.90;;;;;;5093749;28;20040;-73
2022/07/18 05:32:32;;;;;;;9.73;4.90;;;17.70;99.90;;;;;;5093149;28;20047;-73
2022/07/18 05:34:58;;;;;;;9.83;4.07;;;17.70;99.90;;;;;;5093233;28;20040;-73
2022/07/18 05:37:24;;;;;;;8.87;5.10;;;17.70;99.90;;;;;;5092260;28;20048;-73
2022/07/18 05:39:52;;;;;;;10.20;4.50;;;17.80;99.90;;;;;;5092992;28;20074;-73
2022/07/18 05:42:19;;;;;;;9.03;4.23;;;17.80;99.90;;;;;;5091913;28;20502;-73
2022/07/18 05:44:44;;;;;;;7.53;4.03;;;17.80;99.90;;;;;;5093049;28;20500;-73
2022/07/18 05:47:10;;;;;;;8.37;4.10;;;17.90;99.90;;;;;;5093599;28;20137;-73
2022/07/18 05:49:36;;;;;;;9.07;4.13;;;17.90;99.90;;;;;;5127073;28;20113;-72
2022/07/18 05:52:02;;;;;;;13.10;4.83;;;18.00;99.90;;;;;;5093053;28;20098;-73
2022/07/18 05:54:28;;;;;;;7.27;4.23;;;18.10;99.90;;;;;;5092055;28;20048;-73
2022/07/18 05:56:54;;;;;;;11.03;4.00;;;18.10;99.90;;;;;;5092998;28;20044;-73
2022/07/18 05:59:21;;;;;;;8.30;4.17;;;18.10;99.90;;;;;;5091981;28;20085;-73
2022/07/18 06:01:47;;;;;;;7.17;4.20;;;18.20;99.90;;;;;;5092274;28;20050;-73
2022/07/18 06:04:13;;;;;;;8.77;4.43;;;18.30;99.90;;;;;;5092150;28;20056;-73
2022/07/18 06:06:39;;;;;;;8.63;4.23;;;18.30;99.90;;;;;;5094735;28;20051;-73
2022/07/18 06:09:05;;;;;;;6.50;3.90;;;18.40;99.90;;;;;;5095666;28;20062;-73
2022/07/18 06:11:32;;;;;;;7.97;3.97;;;18.50;99.90;;;;;;5095853;28;20135;-73
2022/07/18 06:13:58;;;;;;;8.73;4.17;;;18.60;99.90;;;;;;5097288;28;20122;-73
2022/07/18 06:16:23;;;;;;;6.17;4.10;;;18.80;99.90;;;;;;5096323;28;20526;-73
2022/07/18 06:18:49;;;;;;;6.83;4.20;;;18.90;99.90;;;;;;5095736;28;20048;-73
2022/07/18 06:21:15;;;;;;;9.10;4.37;;;19.20;99.90;;;;;;5095597;28;20478;-74
2022/07/18 06:23:40;;;;;;;7.87;4.00;;;19.80;99.90;;;;;;5096382;28;20051;-73
2022/07/18 06:26:06;;;;;;;6.30;3.90;;;20.30;99.20;;;;;;5095000;28;20039;-73
2022/07/18 06:28:32;;;;;;;7.93;4.33;;;20.70;98.10;;;;;;5096762;28;20048;-73
2022/07/18 06:30:58;;;;;;;9.63;4.00;;;21.40;96.20;;;;;;5096241;28;20108;-73
2022/07/18 06:33:24;;;;;;;9.17;4.37;;;22.20;95.00;;;;;;5096263;28;20126;-73
2022/07/18 06:35:50;;;;;;;6.80;4.03;;;22.70;91.80;;;;;;5095888;28;20044;-75
2022/07/18 06:38:16;;;;;;;7.40;4.27;;;23.10;87.00;;;;;;5096117;28;20084;-75
2022/07/18 06:40:43;;;;;;;7.53;4.20;;;23.80;83.00;;;;;;5094877;28;20051;-75
2022/07/18 06:43:09;;;;;;;7.37;4.40;;;24.60;77.70;;;;;;5095746;28;20048;-77
2022/07/18 06:45:35;;;;;;;6.93;4.07;;;25.40;72.80;;;;;;5095877;28;20048;-77
2022/07/18 06:48:01;;;;;;;8.87;3.73;;;26.30;67.80;;;;;;5095161;28;20070;-73
2022/07/18 06:50:26;;;;;;;8.73;4.10;;;27.40;63.50;;;;;;5095889;28;20044;-75
2022/07/18 06:52:52;;;;;;;7.37;3.73;;;28.10;58.50;;;;;;5094662;28;20089;-75
2022/07/18 06:55:18;;;;;;;7.83;3.70;;;28.70;55.30;;;;;;5094757;28;20052;-76
2022/07/18 06:57:44;;;;;;;6.07;3.10;;;29.40;75.80;;;;;;5095780;28;20052;-76
2022/07/18 07:00:13;;;;;;;7.23;3.43;;;29.60;69.70;;;;;;5095411;28;20051;-75
2022/07/18 07:02:44;;;;;;;7.23;3.10;;;29.50;65.60;;;;;;5095564;28;20051;-73
2022/07/18 07:05:11;;;;;;;7.20;3.40;;;29.50;63.90;;;;;;5095976;28;20048;-75
2022/07/18 07:07:37;;;;;;;8.07;3.37;;;29.20;64.10;;;;;;5094561;28;20051;-74
2022/07/18 07:10:03;;;;;;;8.03;3.20;;;28.80;48.30;;;;;;5094410;28;20515;-75
2022/07/18 07:12:29;;;;;;;6.07;2.90;;;28.40;48.60;;;;;;5095425;28;20088;-75
2022/07/18 07:14:55;;;;;;;7.27;3.07;;;28.20;48.70;;;;;;5095670;28;20093;-75
2022/07/18 07:17:21;;;;;;;7.23;3.10;;;;;;;;;;5094741;28;20039;-75
2022/07/18 07:19:47;;;;;;;7.77;3.30;;;;;;;;;;5128162;27;20116;-73
2022/07/18 07:22:13;;;;;;;6.60;3.03;;;;;;;;;;5095213;28;20051;-70
2022/07/18 07:24:40;;;;;;;6.23;3.00;;;29.10;74.30;;;;;;5095547;28;20443;-73
2022/07/18 07:27:05;;;;;;;7.07;3.20;;;29.20;59.40;;;;;;5095005;28;20048;-74
2022/07/18 07:29:31;;;;;;;6.60;2.90;;;28.70;46.60;;;;;;5093855;28;20040;-73
2022/07/18 07:31:57;;;;;;;5.87;3.10;;;28.70;47.30;;;;;;5095069;28;20083;-73
2022/07/18 07:34:23;;;;;;;8.53;2.90;;;28.80;46.50;;;;;;5093784;28;20117;-73
2022/07/18 07:36:48;;;;;;;5.90;2.90;;;28.70;45.80;;;;;;5093699;28;20442;-73
2022/07/18 07:39:14;;;;;;;9.37;3.03;;;28.50;45.90;;;;;;5094136;28;20048;-76
2022/07/18 07:41:40;;;;;;;8.43;3.30;;;28.60;46.00;;;;;;5095334;28;20044;-73
2022/07/18 07:44:06;;;;;;;7.35;3.38;;;;;;;;;;5093078;28;20056;-77
2022/07/18 07:46:32;;;;;;;5.97;2.90;;;;;;;;;;5093718;28;20044;-76
2022/07/18 07:48:58;;;;;;;5.78;2.70;;;;;;;;;;5076808;28;20051;-75
2022/07/18 07:51:25;;;;;;;5.20;3.22;;;;;;;;;;5094610;28;20048;-75
2022/07/18 07:53:51;;;;;;;5.95;3.05;;;;;;;;;;5093636;28;20471;-75
2022/07/18 07:56:18;;;;;;;9.00;3.42;;;;;;;;;;5094611;28;20177;-79
2022/07/18 07:58:45;;;;;;;6.50;2.80;;;34.50;36.70;;;;;;5093902;28;20063;-80
2022/07/18 08:01:11;;;;;;;6.45;2.85;;;34.70;38.90;;;;;;5077384;28;20079;-79
2022/07/18 08:03:38;;;;;;;5.65;2.90;;;34.80;37.30;;;;;;5093496;28;20048;-73
2022/07/18 08:06:03;;;;;;;6.85;3.75;;;34.80;37.00;;;;;;5094344;28;20040;-76
2022/07/18 08:08:29;;;;;;;6.35;2.97;;;;;;;;;;5094825;28;20055;-75
2022/07/18 08:10:56;;;;;;;7.75;2.85;;;;;;;;;;5094116;28;20051;-77
2022/07/18 08:13:22;;;;;;;10.70;3.03;;;;;;;;;;5076378;28;20059;-77
2022/07/18 08:15:48;;;;;;;6.32;2.80;;;34.50;71.80;;;;;;5093047;28;20040;-76
2022/07/18 08:18:13;;;;;;;6.93;3.42;;;34.50;70.30;;;;;;5093209;28;20051;-76
2022/07/18 08:20:39;;;;;;;5.60;3.15;;;34.60;68.90;;;;;;5076087;28;20039;-76
2022/07/18 08:23:10;;;;;;;6.88;2.97;;;34.80;36.30;;;;;;5094318;28;20048;-76
2022/07/18 08:25:40;;;;;;;8.63;3.03;;;35.40;35.90;;;;;;5093548;28;20070;-75
2022/07/18 08:28:07;;;;;;;8.85;3.55;;;35.70;35.20;;;;;;5092946;28;20055;-76
2022/07/18 08:30:34;;;;;;;7.47;3.30;;;35.70;34.80;;;;;;5093502;28;20051;-73
2022/07/18 08:33:03;;;;;;;9.35;3.13;;;35.30;34.40;;;;;;5093989;28;20059;-76
2022/07/18 08:35:31;;;;;;;7.53;3.17;;;35.20;35.00;;;;;;5092728;28;20040;-76
2022/07/18 08:37:58;;;;;;;9.73;3.00;;;35.40;35.20;;;;;;5076920;28;20480;-73
2022/07/18 08:40:24;;;;;;;6.25;3.15;;;35.40;34.80;;;;;;5094334;28;20048;-74
2022/07/18 08:42:51;;;;;;;5.65;2.95;;;35.10;35.00;;;;;;5093855;28;20104;-75
2022/07/18 08:45:21;;;;;;;5.90;3.08;;;35.00;35.40;;;;;;5075590;28;20070;-74
2022/07/18 08:47:46;;;;;;;7.32;3.00;;;34.60;35.20;;;;;;5093678;28;20051;-75
2022/07/18 08:50:12;;;;;;;8.77;3.70;;;;;;;;;;5093721;28;20387;-80
2022/07/18 08:52:39;;;;;;;8.63;3.13;;;;;;;;;;5093904;28;20043;-74
2022/07/18 08:55:09;;;;;;;9.73;3.20;;;32.60;36.70;;;;;;5093279;28;20561;-74
2022/07/18 08:57:35;;;;;;;9.48;3.13;;;32.60;37.30;;;;;;5094177;28;20048;-75
2022/07/18 09:00:06;;;;;;;6.15;3.20;;;32.30;37.50;;;;;;5093652;28;20044;-75
2022/07/18 09:02:32;;;;;;;8.27;2.75;;;;;;;;;;5092373;28;20495;-76
2022/07/18 09:05:01;;;;;;;4.40;2.20;;;31.60;61.00;;;;;;5092432;28;20044;-76
2022/07/18 09:07:30;;;;;;;7.32;2.92;;;31.50;39.00;;;;;;5093893;28;20051;-83
2022/07/18 09:09:59;;;;;;;9.40;3.00;;;31.40;39.00;;;;;;5093477;28;20044;-74
2022/07/18 09:12:26;;;;;;;11.77;3.05;;;31.20;39.40;;;;;;5093680;28;20395;-75
2022/07/18 09:14:53;;;;;;;5.90;2.70;;;31.00;39.70;;;;;;5091937;28;20553;-74
2022/07/18 09:17:24;;;;;;;6.43;2.63;;;31.00;44.20;;;;;;5092393;28;20484;-74
2022/07/18 09:20:08;;;;;;;7.72;2.67;;;30.80;40.20;;;;;;5092457;28;20052;-73
2022/07/18 09:22:35;;;;;;;7.30;3.10;;;30.70;40.70;;;;;;5093695;28;20051;-74
2022/07/18 09:25:06;;;;;;;6.53;2.95;;;30.50;40.00;;;;;;5093292;28;20044;-75
2022/07/18 09:27:39;;;;;;;7.18;2.92;;;30.40;40.30;;;;;;5093287;28;20093;-74
2022/07/18 09:30:20;;;;;;;7.32;2.47;;;30.50;40.30;;;;;;5075786;28;20134;-74
2022/07/18 09:33:03;;;;;;;8.30;2.97;;;30.40;39.20;;;;;;5092343;28;20063;-73
2022/07/18 09:35:35;;;;;;;5.90;2.75;;;30.40;39.10;;;;;;5092551;28;20395;-75
2022/07/18 09:38:10;;;;;;;5.75;2.30;;;30.40;39.40;;;;;;5093505;28;20050;-76
2022/07/18 09:40:37;;;;;;;6.60;2.65;;;30.30;38.70;;;;;;5093833;28;20044;-75
2022/07/18 09:43:08;;;;;;;7.72;2.80;;;30.30;38.90;;;;;;5096782;28;20052;-75
2022/07/18 09:45:53;;;;;;;6.35;2.45;;;30.30;39.50;;;;;;5096223;28;20134;-75
2022/07/18 09:48:24;;;;;;;7.72;2.53;;;30.20;39.50;;;;;;5079465;28;20094;-77
2022/07/18 09:50:55;;;;;;;8.52;2.60;;;30.20;39.80;;;;;;5095845;28;20480;-75
2022/07/18 09:53:24;;;;;;;7.50;2.45;;;30.20;40.20;;;;;;5096939;28;20055;-75
2022/07/18 09:55:55;;;;;;;9.20;2.88;;;30.20;40.40;;;;;;5095875;28;20044;-75
2022/07/18 09:58:26;;;;;;;7.60;2.63;;;30.10;40.00;;;;;;5095849;28;20506;-75
2022/07/18 10:00:54;;;;;;;7.68;2.50;;;29.90;40.20;;;;;;5096700;28;20443;-75
2022/07/18 10:03:23;;;;;;;6.45;2.53;;;29.90;40.40;;;;;;5096795;28;20052;-79
2022/07/18 10:05:51;;;;;;;25.65;3.90;;;29.80;40.80;;;;;;5095514;28;20047;-75
2022/07/18 10:08:22;;;;;;;8.38;2.67;;;29.70;40.50;;;;;;5095930;28;20388;-75
2022/07/18 10:10:50;;;;;;;8.50;2.88;;;29.70;40.20;;;;;;5096523;28;20058;-75
2022/07/18 10:13:17;;;;;;;7.00;2.15;;;29.60;40.30;;;;;;5095371;28;20476;-75
2022/07/18 10:15:44;;;;;;;7.25;2.63;;;29.60;40.90;;;;;;5096359;28;20067;-75
2022/07/18 10:18:17;;;;;;;10.85;2.90;;;29.60;41.40;;;;;;5096506;28;20181;-75
2022/07/18 10:20:57;;;;;;;8.77;2.80;;;29.40;41.00;;;;;;5096513;28;20089;-75
2022/07/18 10:23:26;;;;;;;7.07;2.35;;;29.30;40.90;;;;;;5096392;28;20131;-75
2022/07/18 10:26:19;;;;;;;11.35;2.78;;;29.20;41.60;;;;;;5079020;28;20047;-74
2022/07/18 10:28:56;;;;;;;8.05;2.10;;;29.20;41.80;;;;;;5096126;28;20048;-74
2022/07/18 10:31:37;;;;;;;6.28;2.53;;;29.10;41.40;;;;;;5095584;28;20052;-74
2022/07/18 10:34:06;;;;;;;5.82;2.20;;;29.10;41.30;;;;;;5095017;28;20070;-75
2022/07/18 10:36:33;;;;;;;5.47;2.10;;;29.10;41.20;;;;;;5095172;28;20048;-75
2022/07/18 10:39:13;;;;;;;7.22;2.22;;;29.10;41.00;;;;;;5094938;28;20044;-74
2022/07/18 10:41:39;;;;;;;8.10;2.30;;;29.00;40.50;;;;;;5096037;28;20056;-74
2022/07/18 10:44:23;;;;;;;9.48;2.67;;;29.00;40.70;;;;;;5094809;28;20052;-74
2022/07/18 10:47:08;;;;;;;6.60;2.60;;;29.00;41.00;;;;;;5095644;28;20105;-73
2022/07/18 10:49:48;;;;;;;8.52;2.67;;;28.90;41.30;;;;;;5096450;28;20539;-81
2022/07/18 10:52:24;;;;;;;8.25;2.72;;;;;;;;;;5077131;28;20051;-81
2022/07/18 10:55:04;;;;;;;7.57;2.67;;;28.80;40.20;;;;;;5094849;28;20048;-81
2022/07/18 10:57:52;;;;;;;5.27;2.70;;;28.70;41.20;;;;;;5095628;28;20083;-81
2022/07/18 11:00:27;;;;;;;7.03;3.13;;;28.70;41.00;;;;;;5084290;28;20147;-79
2022/07/18 11:03:10;;;;;;;7.22;2.80;;;28.70;41.70;;;;;;5094646;28;20489;-79
2022/07/18 11:05:45;;;;;;;7.10;3.53;;;28.70;42.00;;;;;;5095531;28;20462;-80
2022/07/18 11:08:13;;;;;;;7.85;2.75;;;28.80;42.60;;;;;;5095651;28;20040;-78
2022/07/18 11:10:46;;;;;;;6.05;2.65;;;28.70;41.90;;;;;;5094503;28;20059;-80
2022/07/18 11:13:24;;;;;;;6.78;2.92;;;28.70;41.50;;;;;;5094805;28;20048;-78
2022/07/18 11:16:10;;;;;;;8.63;3.50;;;28.70;42.30;;;;;;5079741;28;20130;-81
2022/07/18 11:18:39;;;;;;;10.27;2.90;;;28.70;41.70;;;;;;5094396;28;20131;-74
2022/07/18 11:21:23;;;;;;;6.30;3.13;;;28.70;41.50;;;;;;5094297;28;20063;-74
2022/07/18 11:24:03;;;;;;;5.65;3.25;;;28.70;41.70;;;;;;5094496;28;20468;-75
2022/07/18 11:26:30;;;;;;;9.80;3.20;;;28.50;41.10;;;;;;5095161;28;20384;-76
2022/07/18 11:29:03;;;;;;;8.63;3.30;;;28.50;41.00;;;;;;5095160;28;20391;-75
2022/07/18 11:31:29;;;;;;;7.20;3.43;;;28.50;41.00;;;;;;5095068;28;20450;-74
2022/07/18 11:33:58;;;;;;;6.68;3.42;;;28.50;41.30;;;;;;5095784;28;20055;-77
2022/07/18 11:36:30;;;;;;;7.80;3.40;;;28.50;41.50;;;;;;5077111;28;20479;-76
2022/07/18 11:39:01;;;;;;;8.30;3.20;;;28.60;42.10;;;;;;5094760;28;20120;-77
2022/07/18 11:41:27;;;;;;;9.37;3.87;;;28.70;42.60;;;;;;5093572;28;20105;-76
2022/07/18 11:43:54;;;;;;;11.10;3.43;;;28.70;41.50;;;;;;5094338;28;20059;-76
2022/07/18 11:46:26;;;;;;;10.30;3.20;;;28.80;41.90;;;;;;5094706;28;20044;-76
2022/07/18 11:48:59;;;;;;;7.18;3.63;;;28.90;42.00;;;;;;5094006;28;20105;-76
2022/07/18 11:51:25;;;;;;;7.65;3.15;;;28.90;41.50;;;;;;5093633;28;20052;-77
2022/07/18 11:53:53;;;;;;;8.87;4.00;;;28.90;41.60;;;;;;5095087;28;20054;-79
2022/07/18 11:56:21;;;;;;;7.17;3.00;;;29.00;41.50;;;;;;5094333;28;20563;-76
2022/07/18 11:58:49;;;;;;;5.93;2.77;;;29.00;41.70;;;;;;5094453;28;20040;-76
2022/07/18 12:01:14;;;;;;;8.23;3.20;;;29.00;42.00;;;;;;5094312;28;20531;-77
2022/07/18 12:03:44;;;;;;;8.80;3.08;;;29.00;42.20;;;;;;5093601;28;20044;-76
2022/07/18 12:06:19;;;;;;;7.73;3.10;;;29.10;42.40;;;;;;5092935;28;20039;-76
2022/07/18 12:08:52;;;;;;;7.47;2.80;;;29.10;42.40;;;;;;5093136;28;20062;-76
2022/07/18 12:11:35;;;;;;;10.95;3.20;;;29.20;42.60;;;;;;5094122;28;20044;-76
2022/07/18 12:14:08;;;;;;;6.80;3.20;;;29.20;42.20;;;;;;5094349;28;20040;-76
2022/07/18 12:16:47;;;;;;;7.88;3.30;;;29.10;41.80;;;;;;5093581;28;20056;-76
2022/07/18 12:19:23;;;;;;;7.37;2.80;;;29.10;41.50;;;;;;5093855;28;20040;-83
2022/07/18 12:21:51;;;;;;;9.40;3.10;;;29.10;42.10;;;;;;5093479;28;20048;-77
2022/07/18 12:24:32;;;;;;;7.22;3.40;;;29.20;42.20;;;;;;5094333;28;20047;-76
2022/07/18 12:27:20;;;;;;;8.30;3.10;;;29.20;42.30;;;;;;5092896;28;20052;-75
2022/07/18 12:30:14;;;;;;;6.77;3.33;;;29.20;42.20;;;;;;5094792;28;20044;-74
2022/07/18 12:32:45;;;;;;;7.45;3.17;;;29.20;42.00;;;;;;5092957;28;20048;-75
2022/07/18 12:35:35;;;;;;;8.88;3.40;;;29.10;41.90;;;;;;5094716;28;20040;-75
2022/07/18 12:38:11;;;;;;;8.10;3.00;;;29.10;42.40;;;;;;5094764;28;20341;-77
2022/07/18 12:40:52;;;;;;;9.52;3.20;;;29.10;42.90;;;;;;5094196;28;20123;-75
2022/07/18 12:43:28;;;;;;;6.90;3.03;;;29.10;42.10;;;;;;5094143;28;20537;-75
2022/07/18 12:45:56;;;;;;;8.38;3.60;;;29.10;42.30;;;;;;5093778;28;20051;-73
2022/07/18 12:48:22;;;;;;;7.47;3.23;;;29.10;42.70;;;;;;5093794;28;20044;-72
2022/07/18 12:51:00;;;;;;;6.63;3.10;;;29.00;42.70;;;;;;5093729;28;20052;-72
2022/07/18 12:53:26;;;;;;;7.32;3.45;;;29.00;42.70;;;;;;5093712;28;20052;-73
2022/07/18 12:55:52;;;;;;;9.97;3.77;;;28.80;64.00;;;;;;5093470;28;20051;-75
2022/07/18 12:58:17;;;;;;;5.50;3.00;;;28.80;51.60;;;;;;5093700;28;20043;-75